sensor_id;sensor_type;location;lat;lon;timestamp;temperature;humidity
17495;DHT22;8864;51.970;4.614;2023-11-21T00:00:11;16.80;83.10
17495;DHT22;8864;51.970;4.614;2023-11-21T00:02:38;16.80;83.00
17495;DHT22;8864;51.970;4.614;2023-11-21T00:05:06;16.80;83.00
17495;DHT22;8864;51.970;4.614;2023-11-21T00:07:35;16.80;83.00
17495;DHT22;8864;51.970;4.614;2023-11-21T00:10:02;16.80;82.90
17495;DHT22;8864;51.970;4.614;2023-11-21T00:12:30;16.80;82.80
17495;DHT22;8864;51.970;4.614;2023-11-21T00:14:57;16.80;82.80
17495;DHT22;8864;51.970;4.614;2023-11-21T00:17:24;16.80;82.70
17495;DHT22;8864;51.970;4.614;2023-11-21T00:19:51;16.80;83.50
17495;DHT22;8864;51.970;4.614;2023-11-21T00:22:18;16.80;82.60
17495;DHT22;8864;51.970;4.614;2023-11-21T00:24:47;16.80;82.50
17495;DHT22;8864;51.970;4.614;2023-11-21T00:27:14;16.80;82.50
17495;DHT22;8864;51.970;4.614;2023-11-21T00:29:41;16.80;82.50
17495;DHT22;8864;51.970;4.614;2023-11-21T00:32:08;16.80;82.40
17495;DHT22;8864;51.970;4.614;2023-11-21T00:34:35;16.80;83.10
17495;DHT22;8864;51.970;4.614;2023-11-21T00:37:02;16.80;82.30
17495;DHT22;8864;51.970;4.614;2023-11-21T00:39:29;16.80;82.20
17495;DHT22;8864;51.970;4.614;2023-11-21T00:41:59;16.80;82.20
17495;DHT22;8864;51.970;4.614;2023-11-21T00:44:26;16.80;82.20
17495;DHT22;8864;51.970;4.614;2023-11-21T00:46:53;16.80;82.20
17495;DHT22;8864;51.970;4.614;2023-11-21T00:49:20;16.80;82.20
17495;DHT22;8864;51.970;4.614;2023-11-21T00:51:48;16.80;82.10
17495;DHT22;8864;51.970;4.614;2023-11-21T00:54:15;16.80;82.10
17495;DHT22;8864;51.970;4.614;2023-11-21T00:56:42;16.80;82.10
17495;DHT22;8864;51.970;4.614;2023-11-21T00:59:11;16.80;82.00
17495;DHT22;8864;51.970;4.614;2023-11-21T01:01:38;16.80;82.00
17495;DHT22;8864;51.970;4.614;2023-11-21T01:04:05;16.80;82.00
17495;DHT22;8864;51.970;4.614;2023-11-21T01:06:32;16.80;82.00
17495;DHT22;8864;51.970;4.614;2023-11-21T01:08:59;16.80;82.00
17495;DHT22;8864;51.970;4.614;2023-11-21T01:11:26;16.80;82.00
17495;DHT22;8864;51.970;4.614;2023-11-21T01:13:53;16.80;82.00
17495;DHT22;8864;51.970;4.614;2023-11-21T01:16:21;16.80;82.00
17495;DHT22;8864;51.970;4.614;2023-11-21T01:18:50;16.80;82.00
17495;DHT22;8864;51.970;4.614;2023-11-21T01:21:16;16.80;82.00
17495;DHT22;8864;51.970;4.614;2023-11-21T01:23:43;16.80;82.00
17495;DHT22;8864;51.970;4.614;2023-11-21T01:26:10;16.80;82.00
17495;DHT22;8864;51.970;4.614;2023-11-21T01:28:37;16.80;82.00
17495;DHT22;8864;51.970;4.614;2023-11-21T01:31:04;16.80;81.90
17495;DHT22;8864;51.970;4.614;2023-11-21T01:33:34;16.80;81.90
17495;DHT22;8864;51.970;4.614;2023-11-21T01:36:00;16.80;82.00
17495;DHT22;8864;51.970;4.614;2023-11-21T01:38:27;16.80;81.90
17495;DHT22;8864;51.970;4.614;2023-11-21T01:40:54;16.80;81.90
17495;DHT22;8864;51.970;4.614;2023-11-21T01:43:21;16.80;81.90
17495;DHT22;8864;51.970;4.614;2023-11-21T01:45:48;16.80;81.90
17495;DHT22;8864;51.970;4.614;2023-11-21T01:48:15;16.80;81.90
17495;DHT22;8864;51.970;4.614;2023-11-21T01:50:44;16.80;82.00
17495;DHT22;8864;51.970;4.614;2023-11-21T01:53:12;16.80;81.90
17495;DHT22;8864;51.970;4.614;2023-11-21T01:55:40;16.80;81.90
17495;DHT22;8864;51.970;4.614;2023-11-21T01:58:07;16.80;81.90
17495;DHT22;8864;51.970;4.614;2023-11-21T02:00:35;16.80;81.90
17495;DHT22;8864;51.970;4.614;2023-11-21T02:03:04;16.80;81.90
17495;DHT22;8864;51.970;4.614;2023-11-21T02:05:32;16.80;82.00
17495;DHT22;8864;51.970;4.614;2023-11-21T02:08:01;16.80;81.90
17495;DHT22;8864;51.970;4.614;2023-11-21T02:10:28;16.80;81.90
17495;DHT22;8864;51.970;4.614;2023-11-21T02:12:56;16.80;81.90
17495;DHT22;8864;51.970;4.614;2023-11-21T02:15:24;16.80;82.60
17495;DHT22;8864;51.970;4.614;2023-11-21T02:17:54;16.80;81.90
17495;DHT22;8864;51.970;4.614;2023-11-21T02:20:24;16.80;82.10
17495;DHT22;8864;51.970;4.614;2023-11-21T02:22:54;16.80;82.00
17495;DHT22;8864;51.970;4.614;2023-11-21T02:25:23;16.80;82.00
17495;DHT22;8864;51.970;4.614;2023-11-21T02:27:50;16.80;82.00
17495;DHT22;8864;51.970;4.614;2023-11-21T02:30:17;16.80;82.00
17495;DHT22;8864;51.970;4.614;2023-11-21T02:32:44;16.80;82.00
17495;DHT22;8864;51.970;4.614;2023-11-21T02:35:11;16.80;82.00
17495;DHT22;8864;51.970;4.614;2023-11-21T02:37:38;16.80;82.00
17495;DHT22;8864;51.970;4.614;2023-11-21T02:40:09;16.80;82.00
17495;DHT22;8864;51.970;4.614;2023-11-21T02:42:38;16.80;82.20
17495;DHT22;8864;51.970;4.614;2023-11-21T02:45:07;16.80;82.30
17495;DHT22;8864;51.970;4.614;2023-11-21T02:47:34;16.80;82.40
17495;DHT22;8864;51.970;4.614;2023-11-21T02:50:01;16.80;82.40
17495;DHT22;8864;51.970;4.614;2023-11-21T02:52:28;16.80;82.30
17495;DHT22;8864;51.970;4.614;2023-11-21T02:54:56;16.80;82.30
17495;DHT22;8864;51.970;4.614;2023-11-21T02:57:24;16.80;82.30
17495;DHT22;8864;51.970;4.614;2023-11-21T02:59:51;16.80;82.30
17495;DHT22;8864;51.970;4.614;2023-11-21T03:02:18;16.80;82.30
17495;DHT22;8864;51.970;4.614;2023-11-21T03:04:45;16.80;82.30
17495;DHT22;8864;51.970;4.614;2023-11-21T03:07:13;16.80;82.30
17495;DHT22;8864;51.970;4.614;2023-11-21T03:09:40;16.80;82.30
17495;DHT22;8864;51.970;4.614;2023-11-21T03:12:09;16.80;82.30
17495;DHT22;8864;51.970;4.614;2023-11-21T03:14:39;16.80;82.30
17495;DHT22;8864;51.970;4.614;2023-11-21T03:17:05;16.80;82.30
17495;DHT22;8864;51.970;4.614;2023-11-21T03:19:33;16.80;82.30
17495;DHT22;8864;51.970;4.614;2023-11-21T03:22:00;16.80;82.20
17495;DHT22;8864;51.970;4.614;2023-11-21T03:24:26;16.80;82.30
17495;DHT22;8864;51.970;4.614;2023-11-21T03:26:53;16.80;82.30
17495;DHT22;8864;51.970;4.614;2023-11-21T03:29:20;16.80;83.00
17495;DHT22;8864;51.970;4.614;2023-11-21T03:31:48;16.80;82.30
17495;DHT22;8864;51.970;4.614;2023-11-21T03:34:23;16.80;82.30
17495;DHT22;8864;51.970;4.614;2023-11-21T03:36:50;16.80;82.30
17495;DHT22;8864;51.970;4.614;2023-11-21T03:39:18;16.80;82.30
17495;DHT22;8864;51.970;4.614;2023-11-21T03:41:45;16.80;82.30
17495;DHT22;8864;51.970;4.614;2023-11-21T03:44:13;16.80;82.30
17495;DHT22;8864;51.970;4.614;2023-11-21T03:46:40;16.80;82.30
17495;DHT22;8864;51.970;4.614;2023-11-21T03:49:08;16.80;82.30
17495;DHT22;8864;51.970;4.614;2023-11-21T03:51:36;16.80;82.30
17495;DHT22;8864;51.970;4.614;2023-11-21T03:54:03;16.80;82.30
17495;DHT22;8864;51.970;4.614;2023-11-21T03:56:30;16.80;82.30
17495;DHT22;8864;51.970;4.614;2023-11-21T03:58:57;16.80;82.30
17495;DHT22;8864;51.970;4.614;2023-11-21T04:01:24;16.80;82.30
17495;DHT22;8864;51.970;4.614;2023-11-21T04:03:51;16.80;82.40
17495;DHT22;8864;51.970;4.614;2023-11-21T04:06:20;16.80;82.30
17495;DHT22;8864;51.970;4.614;2023-11-21T04:08:46;16.80;82.40
17495;DHT22;8864;51.970;4.614;2023-11-21T04:11:13;16.80;82.30
17495;DHT22;8864;51.970;4.614;2023-11-21T04:13:41;16.80;82.30
17495;DHT22;8864;51.970;4.614;2023-11-21T04:16:09;16.80;82.30
17495;DHT22;8864;51.970;4.614;2023-11-21T04:18:36;16.80;82.30
17495;DHT22;8864;51.970;4.614;2023-11-21T04:21:04;16.80;82.40
17495;DHT22;8864;51.970;4.614;2023-11-21T04:23:32;16.80;82.40
17495;DHT22;8864;51.970;4.614;2023-11-21T04:26:00;16.80;82.40
17495;DHT22;8864;51.970;4.614;2023-11-21T04:28:27;16.80;82.40
17495;DHT22;8864;51.970;4.614;2023-11-21T04:30:54;16.80;82.40
17495;DHT22;8864;51.970;4.614;2023-11-21T04:33:21;16.80;82.50
17495;DHT22;8864;51.970;4.614;2023-11-21T04:35:48;16.80;82.50
17495;DHT22;8864;51.970;4.614;2023-11-21T04:38:15;16.80;82.50
17495;DHT22;8864;51.970;4.614;2023-11-21T04:40:43;16.80;82.50
17495;DHT22;8864;51.970;4.614;2023-11-21T04:43:10;16.80;82.50
17495;DHT22;8864;51.970;4.614;2023-11-21T04:45:37;16.80;82.50
17495;DHT22;8864;51.970;4.614;2023-11-21T04:48:04;16.80;82.50
17495;DHT22;8864;51.970;4.614;2023-11-21T04:50:34;16.80;82.50
17495;DHT22;8864;51.970;4.614;2023-11-21T04:53:00;16.80;82.50
17495;DHT22;8864;51.970;4.614;2023-11-21T04:55:28;16.80;82.50
17495;DHT22;8864;51.970;4.614;2023-11-21T04:57:59;16.80;83.30
17495;DHT22;8864;51.970;4.614;2023-11-21T05:00:26;16.80;82.60
17495;DHT22;8864;51.970;4.614;2023-11-21T05:02:52;16.80;82.60
17495;DHT22;8864;51.970;4.614;2023-11-21T05:05:19;16.90;82.60
17495;DHT22;8864;51.970;4.614;2023-11-21T05:07:46;16.80;82.60
17495;DHT22;8864;51.970;4.614;2023-11-21T05:10:14;16.80;82.60
17495;DHT22;8864;51.970;4.614;2023-11-21T05:12:41;16.80;82.80
17495;DHT22;8864;51.970;4.614;2023-11-21T05:15:14;16.80;82.60
17495;DHT22;8864;51.970;4.614;2023-11-21T05:17:41;16.80;82.60
17495;DHT22;8864;51.970;4.614;2023-11-21T05:20:09;16.80;82.60
17495;DHT22;8864;51.970;4.614;2023-11-21T05:22:37;16.80;82.60
17495;DHT22;8864;51.970;4.614;2023-11-21T05:25:05;16.80;82.60
17495;DHT22;8864;51.970;4.614;2023-11-21T05:27:33;16.80;82.60
17495;DHT22;8864;51.970;4.614;2023-11-21T05:30:02;16.80;82.70
17495;DHT22;8864;51.970;4.614;2023-11-21T05:32:32;16.80;82.70
17495;DHT22;8864;51.970;4.614;2023-11-21T05:34:59;16.90;82.80
17495;DHT22;8864;51.970;4.614;2023-11-21T05:37:26;16.80;82.80
17495;DHT22;8864;51.970;4.614;2023-11-21T05:39:53;16.80;82.80
17495;DHT22;8864;51.970;4.614;2023-11-21T05:42:21;16.80;82.80
17495;DHT22;8864;51.970;4.614;2023-11-21T05:44:49;16.80;83.00
17495;DHT22;8864;51.970;4.614;2023-11-21T05:47:15;16.80;83.00
17495;DHT22;8864;51.970;4.614;2023-11-21T05:49:44;16.80;83.10
17495;DHT22;8864;51.970;4.614;2023-11-21T05:52:15;16.80;83.10
17495;DHT22;8864;51.970;4.614;2023-11-21T05:54:42;16.80;83.20
17495;DHT22;8864;51.970;4.614;2023-11-21T05:57:09;16.80;83.30
17495;DHT22;8864;51.970;4.614;2023-11-21T05:59:36;16.80;84.00
17495;DHT22;8864;51.970;4.614;2023-11-21T06:02:03;16.80;83.30
17495;DHT22;8864;51.970;4.614;2023-11-21T06:04:30;16.80;83.30
17495;DHT22;8864;51.970;4.614;2023-11-21T06:06:59;16.80;83.30
17495;DHT22;8864;51.970;4.614;2023-11-21T06:09:26;16.80;83.30
17495;DHT22;8864;51.970;4.614;2023-11-21T06:11:53;16.80;83.30
17495;DHT22;8864;51.970;4.614;2023-11-21T06:14:20;16.80;83.30
17495;DHT22;8864;51.970;4.614;2023-11-21T06:16:47;16.80;83.40
17495;DHT22;8864;51.970;4.614;2023-11-21T06:19:17;16.80;83.30
17495;DHT22;8864;51.970;4.614;2023-11-21T06:21:45;16.80;83.40
17495;DHT22;8864;51.970;4.614;2023-11-21T06:24:14;16.80;83.40
17495;DHT22;8864;51.970;4.614;2023-11-21T06:26:41;16.80;83.50
17495;DHT22;8864;51.970;4.614;2023-11-21T06:29:09;16.80;83.40
17495;DHT22;8864;51.970;4.614;2023-11-21T06:31:36;16.80;83.60
17495;DHT22;8864;51.970;4.614;2023-11-21T06:34:03;16.80;83.60
17495;DHT22;8864;51.970;4.614;2023-11-21T06:36:30;16.80;83.70
17495;DHT22;8864;51.970;4.614;2023-11-21T06:38:57;16.80;83.70
17495;DHT22;8864;51.970;4.614;2023-11-21T06:41:25;16.80;83.70
17495;DHT22;8864;51.970;4.614;2023-11-21T06:43:52;16.80;83.70
17495;DHT22;8864;51.970;4.614;2023-11-21T06:46:19;16.80;83.70
17495;DHT22;8864;51.970;4.614;2023-11-21T06:48:46;16.80;83.70
17495;DHT22;8864;51.970;4.614;2023-11-21T06:51:14;16.80;83.80
17495;DHT22;8864;51.970;4.614;2023-11-21T06:53:41;16.80;84.30
17495;DHT22;8864;51.970;4.614;2023-11-21T06:56:15;16.80;84.30
17495;DHT22;8864;51.970;4.614;2023-11-21T06:58:44;16.80;84.30
17495;DHT22;8864;51.970;4.614;2023-11-21T07:01:12;16.80;84.20
17495;DHT22;8864;51.970;4.614;2023-11-21T07:03:39;16.80;84.10
17495;DHT22;8864;51.970;4.614;2023-11-21T07:06:07;16.80;84.00
17495;DHT22;8864;51.970;4.614;2023-11-21T07:08:34;16.90;84.00
17495;DHT22;8864;51.970;4.614;2023-11-21T07:11:02;16.80;83.90
17495;DHT22;8864;51.970;4.614;2023-11-21T07:13:29;16.80;83.90
17495;DHT22;8864;51.970;4.614;2023-11-21T07:15:57;16.80;83.70
17495;DHT22;8864;51.970;4.614;2023-11-21T07:18:25;16.80;83.70
17495;DHT22;8864;51.970;4.614;2023-11-21T07:20:52;16.80;83.70
17495;DHT22;8864;51.970;4.614;2023-11-21T07:23:19;16.80;83.70
17495;DHT22;8864;51.970;4.614;2023-11-21T07:25:48;16.80;83.70
17495;DHT22;8864;51.970;4.614;2023-11-21T07:28:15;16.80;83.70
17495;DHT22;8864;51.970;4.614;2023-11-21T07:30:42;16.90;83.70
17495;DHT22;8864;51.970;4.614;2023-11-21T07:33:10;16.80;83.70
17495;DHT22;8864;51.970;4.614;2023-11-21T07:35:37;16.80;83.70
17495;DHT22;8864;51.970;4.614;2023-11-21T07:38:04;16.80;83.70
17495;DHT22;8864;51.970;4.614;2023-11-21T07:40:30;16.80;83.60
17495;DHT22;8864;51.970;4.614;2023-11-21T07:42:57;16.80;83.60
17495;DHT22;8864;51.970;4.614;2023-11-21T07:45:25;16.80;83.60
17495;DHT22;8864;51.970;4.614;2023-11-21T07:47:53;16.80;83.40
17495;DHT22;8864;51.970;4.614;2023-11-21T07:50:21;16.80;83.50
17495;DHT22;8864;51.970;4.614;2023-11-21T07:52:48;16.80;83.40
17495;DHT22;8864;51.970;4.614;2023-11-21T07:55:16;16.80;83.70
17495;DHT22;8864;51.970;4.614;2023-11-21T07:57:43;16.90;84.20
17495;DHT22;8864;51.970;4.614;2023-11-21T08:00:11;16.80;84.50
17495;DHT22;8864;51.970;4.614;2023-11-21T08:02:38;16.80;85.90
17495;DHT22;8864;51.970;4.614;2023-11-21T08:05:08;16.90;85.30
17495;DHT22;8864;51.970;4.614;2023-11-21T08:07:37;16.90;85.60
17495;DHT22;8864;51.970;4.614;2023-11-21T08:10:05;16.90;85.00
17495;DHT22;8864;51.970;4.614;2023-11-21T08:12:35;17.00;84.70
17495;DHT22;8864;51.970;4.614;2023-11-21T08:15:03;17.00;84.50
17495;DHT22;8864;51.970;4.614;2023-11-21T08:17:31;17.00;84.40
17495;DHT22;8864;51.970;4.614;2023-11-21T08:19:58;17.00;84.30
17495;DHT22;8864;51.970;4.614;2023-11-21T08:22:25;16.90;84.40
17495;DHT22;8864;51.970;4.614;2023-11-21T08:24:53;16.90;84.50
17495;DHT22;8864;51.970;4.614;2023-11-21T08:27:22;16.90;85.10
17495;DHT22;8864;51.970;4.614;2023-11-21T08:29:49;16.90;85.40
17495;DHT22;8864;51.970;4.614;2023-11-21T08:32:16;16.90;85.20
17495;DHT22;8864;51.970;4.614;2023-11-21T08:34:43;16.90;85.10
17495;DHT22;8864;51.970;4.614;2023-11-21T08:37:11;16.90;85.20
17495;DHT22;8864;51.970;4.614;2023-11-21T08:39:37;16.90;85.10
17495;DHT22;8864;51.970;4.614;2023-11-21T08:42:06;16.90;85.00
17495;DHT22;8864;51.970;4.614;2023-11-21T08:44:33;16.90;85.00
17495;DHT22;8864;51.970;4.614;2023-11-21T08:47:00;16.90;84.90
17495;DHT22;8864;51.970;4.614;2023-11-21T08:49:27;16.90;84.90
17495;DHT22;8864;51.970;4.614;2023-11-21T08:51:55;16.90;84.80
17495;DHT22;8864;51.970;4.614;2023-11-21T08:54:24;16.90;84.70
17495;DHT22;8864;51.970;4.614;2023-11-21T08:56:51;16.90;84.80
17495;DHT22;8864;51.970;4.614;2023-11-21T08:59:20;16.90;85.70
17495;DHT22;8864;51.970;4.614;2023-11-21T09:01:47;16.90;86.10
17495;DHT22;8864;51.970;4.614;2023-11-21T09:04:14;16.90;86.40
17495;DHT22;8864;51.970;4.614;2023-11-21T09:06:40;16.90;86.50
17495;DHT22;8864;51.970;4.614;2023-11-21T09:09:07;16.90;86.60
17495;DHT22;8864;51.970;4.614;2023-11-21T09:11:35;16.90;86.50
17495;DHT22;8864;51.970;4.614;2023-11-21T09:14:03;16.90;86.50
17495;DHT22;8864;51.970;4.614;2023-11-21T09:16:31;17.00;86.70
17495;DHT22;8864;51.970;4.614;2023-11-21T09:18:58;17.00;86.70
17495;DHT22;8864;51.970;4.614;2023-11-21T09:21:26;16.90;86.70
17495;DHT22;8864;51.970;4.614;2023-11-21T09:23:53;17.00;86.80
17495;DHT22;8864;51.970;4.614;2023-11-21T09:26:20;17.00;86.60
17495;DHT22;8864;51.970;4.614;2023-11-21T09:28:47;17.00;86.60
17495;DHT22;8864;51.970;4.614;2023-11-21T09:31:14;17.00;86.80
17495;DHT22;8864;51.970;4.614;2023-11-21T09:33:43;17.00;86.70
17495;DHT22;8864;51.970;4.614;2023-11-21T09:36:13;17.00;86.50
17495;DHT22;8864;51.970;4.614;2023-11-21T09:38:42;17.00;86.30
17495;DHT22;8864;51.970;4.614;2023-11-21T09:41:27;17.00;86.40
17495;DHT22;8864;51.970;4.614;2023-11-21T09:44:00;17.00;86.80
17495;DHT22;8864;51.970;4.614;2023-11-21T09:46:29;17.10;86.60
17495;DHT22;8864;51.970;4.614;2023-11-21T09:48:58;17.10;86.60
17495;DHT22;8864;51.970;4.614;2023-11-21T09:51:27;17.20;86.80
17495;DHT22;8864;51.970;4.614;2023-11-21T09:53:59;17.20;86.90
17495;DHT22;8864;51.970;4.614;2023-11-21T09:56:27;17.20;87.20
17495;DHT22;8864;51.970;4.614;2023-11-21T09:58:55;17.20;87.20
17495;DHT22;8864;51.970;4.614;2023-11-21T10:01:25;17.20;86.80
17495;DHT22;8864;51.970;4.614;2023-11-21T10:03:53;17.20;86.60
17495;DHT22;8864;51.970;4.614;2023-11-21T10:06:24;17.20;86.50
17495;DHT22;8864;51.970;4.614;2023-11-21T10:08:53;17.20;86.30
17495;DHT22;8864;51.970;4.614;2023-11-21T10:11:23;17.20;86.20
17495;DHT22;8864;51.970;4.614;2023-11-21T10:13:53;17.10;85.90
17495;DHT22;8864;51.970;4.614;2023-11-21T10:16:26;17.10;86.00
17495;DHT22;8864;51.970;4.614;2023-11-21T10:18:53;17.20;85.50
17495;DHT22;8864;51.970;4.614;2023-11-21T10:21:22;17.10;85.40
17495;DHT22;8864;51.970;4.614;2023-11-21T10:23:51;17.10;85.30
17495;DHT22;8864;51.970;4.614;2023-11-21T10:26:20;17.20;85.60
17495;DHT22;8864;51.970;4.614;2023-11-21T10:28:56;17.20;85.50
17495;DHT22;8864;51.970;4.614;2023-11-21T10:31:23;17.20;85.40
17495;DHT22;8864;51.970;4.614;2023-11-21T10:33:50;17.30;86.10
17495;DHT22;8864;51.970;4.614;2023-11-21T10:36:27;17.40;86.20
17495;DHT22;8864;51.970;4.614;2023-11-21T10:38:54;17.60;86.20
17495;DHT22;8864;51.970;4.614;2023-11-21T10:41:22;17.80;85.70
17495;DHT22;8864;51.970;4.614;2023-11-21T10:43:53;18.00;85.00
17495;DHT22;8864;51.970;4.614;2023-11-21T10:46:21;18.10;84.80
17495;DHT22;8864;51.970;4.614;2023-11-21T10:48:52;18.20;84.40
17495;DHT22;8864;51.970;4.614;2023-11-21T10:51:20;18.30;84.20
17495;DHT22;8864;51.970;4.614;2023-11-21T10:53:51;18.40;83.80
17495;DHT22;8864;51.970;4.614;2023-11-21T10:56:18;18.40;83.50
17495;DHT22;8864;51.970;4.614;2023-11-21T10:58:49;18.40;83.30
17495;DHT22;8864;51.970;4.614;2023-11-21T11:01:18;18.40;83.60
17495;DHT22;8864;51.970;4.614;2023-11-21T11:03:47;18.40;83.40
17495;DHT22;8864;51.970;4.614;2023-11-21T11:06:15;18.40;83.50
17495;DHT22;8864;51.970;4.614;2023-11-21T11:08:44;18.30;83.60
17495;DHT22;8864;51.970;4.614;2023-11-21T11:11:12;18.30;83.60
17495;DHT22;8864;51.970;4.614;2023-11-21T11:13:43;18.30;83.90
17495;DHT22;8864;51.970;4.614;2023-11-21T11:16:12;18.30;84.40
17495;DHT22;8864;51.970;4.614;2023-11-21T11:18:43;18.30;84.40
17495;DHT22;8864;51.970;4.614;2023-11-21T11:21:19;18.30;84.60
17495;DHT22;8864;51.970;4.614;2023-11-21T11:24:05;18.30;84.90
17495;DHT22;8864;51.970;4.614;2023-11-21T11:26:44;18.20;84.70
17495;DHT22;8864;51.970;4.614;2023-11-21T11:29:21;18.20;84.90
17495;DHT22;8864;51.970;4.614;2023-11-21T11:32:02;18.20;85.00
17495;DHT22;8864;51.970;4.614;2023-11-21T11:34:33;18.20;85.00
17495;DHT22;8864;51.970;4.614;2023-11-21T11:37:03;18.20;85.50
17495;DHT22;8864;51.970;4.614;2023-11-21T11:39:35;18.20;85.40
17495;DHT22;8864;51.970;4.614;2023-11-21T11:42:06;18.20;84.50
17495;DHT22;8864;51.970;4.614;2023-11-21T11:44:54;18.20;84.40
17495;DHT22;8864;51.970;4.614;2023-11-21T11:47:25;18.30;84.10
17495;DHT22;8864;51.970;4.614;2023-11-21T11:50:00;18.40;84.10
17495;DHT22;8864;51.970;4.614;2023-11-21T11:52:42;18.50;83.70
17495;DHT22;8864;51.970;4.614;2023-11-21T11:55:11;18.50;83.50
17495;DHT22;8864;51.970;4.614;2023-11-21T11:57:55;18.50;83.20
17495;DHT22;8864;51.970;4.614;2023-11-21T12:00:23;18.60;83.10
17495;DHT22;8864;51.970;4.614;2023-11-21T12:03:04;18.60;82.90
17495;DHT22;8864;51.970;4.614;2023-11-21T12:05:33;18.50;82.90
17495;DHT22;8864;51.970;4.614;2023-11-21T12:08:05;18.50;82.80
17495;DHT22;8864;51.970;4.614;2023-11-21T12:10:36;18.50;82.80
17495;DHT22;8864;51.970;4.614;2023-11-21T12:13:07;18.50;82.70
17495;DHT22;8864;51.970;4.614;2023-11-21T12:15:42;18.50;82.70
17495;DHT22;8864;51.970;4.614;2023-11-21T12:18:12;18.60;82.70
17495;DHT22;8864;51.970;4.614;2023-11-21T12:20:41;18.60;82.60
17495;DHT22;8864;51.970;4.614;2023-11-21T12:26:00;18.70;82.40
17495;DHT22;8864;51.970;4.614;2023-11-21T12:28:29;18.80;82.40
17495;DHT22;8864;51.970;4.614;2023-11-21T12:30:58;18.80;82.30
17495;DHT22;8864;51.970;4.614;2023-11-21T12:33:25;18.80;82.10
17495;DHT22;8864;51.970;4.614;2023-11-21T12:35:59;18.80;82.00
17495;DHT22;8864;51.970;4.614;2023-11-21T12:38:33;18.80;81.80
17495;DHT22;8864;51.970;4.614;2023-11-21T12:41:00;18.90;81.90
17495;DHT22;8864;51.970;4.614;2023-11-21T12:43:29;18.80;81.80
17495;DHT22;8864;51.970;4.614;2023-11-21T12:46:05;18.80;81.80
17495;DHT22;8864;51.970;4.614;2023-11-21T12:48:32;18.80;81.80
17495;DHT22;8864;51.970;4.614;2023-11-21T12:51:02;18.80;81.80
17495;DHT22;8864;51.970;4.614;2023-11-21T12:53:30;18.80;81.80
17495;DHT22;8864;51.970;4.614;2023-11-21T12:56:05;18.90;81.80
17495;DHT22;8864;51.970;4.614;2023-11-21T12:58:36;18.90;81.60
17495;DHT22;8864;51.970;4.614;2023-11-21T13:01:05;18.90;81.70
17495;DHT22;8864;51.970;4.614;2023-11-21T13:03:38;18.90;82.20
17495;DHT22;8864;51.970;4.614;2023-11-21T13:06:06;18.90;82.30
17495;DHT22;8864;51.970;4.614;2023-11-21T13:08:34;18.90;82.70
17495;DHT22;8864;51.970;4.614;2023-11-21T13:11:05;18.90;82.60
17495;DHT22;8864;51.970;4.614;2023-11-21T13:13:32;19.00;83.30
17495;DHT22;8864;51.970;4.614;2023-11-21T13:16:02;19.00;83.00
17495;DHT22;8864;51.970;4.614;2023-11-21T13:18:30;19.00;82.20
17495;DHT22;8864;51.970;4.614;2023-11-21T13:20:59;19.00;82.00
17495;DHT22;8864;51.970;4.614;2023-11-21T13:23:26;19.00;81.60
17495;DHT22;8864;51.970;4.614;2023-11-21T13:25:55;19.00;81.30
17495;DHT22;8864;51.970;4.614;2023-11-21T13:28:22;19.00;81.00
17495;DHT22;8864;51.970;4.614;2023-11-21T13:30:50;19.00;80.90
17495;DHT22;8864;51.970;4.614;2023-11-21T13:33:19;19.00;80.70
17495;DHT22;8864;51.970;4.614;2023-11-21T13:35:53;19.00;80.60
17495;DHT22;8864;51.970;4.614;2023-11-21T13:38:22;18.90;80.40
17495;DHT22;8864;51.970;4.614;2023-11-21T13:40:51;18.90;80.40
17495;DHT22;8864;51.970;4.614;2023-11-21T13:43:20;18.90;80.30
17495;DHT22;8864;51.970;4.614;2023-11-21T13:45:50;18.90;80.40
17495;DHT22;8864;51.970;4.614;2023-11-21T13:48:25;18.90;80.30
17495;DHT22;8864;51.970;4.614;2023-11-21T13:50:58;18.80;80.30
17495;DHT22;8864;51.970;4.614;2023-11-21T13:53:27;18.80;80.40
17495;DHT22;8864;51.970;4.614;2023-11-21T13:55:54;18.70;80.40
17495;DHT22;8864;51.970;4.614;2023-11-21T13:58:23;18.70;80.50
17495;DHT22;8864;51.970;4.614;2023-11-21T14:01:00;18.70;80.50
17495;DHT22;8864;51.970;4.614;2023-11-21T14:03:32;18.60;80.50
17495;DHT22;8864;51.970;4.614;2023-11-21T14:06:08;18.60;80.60
17495;DHT22;8864;51.970;4.614;2023-11-21T14:08:41;18.50;80.60
17495;DHT22;8864;51.970;4.614;2023-11-21T14:11:08;18.50;80.70
17495;DHT22;8864;51.970;4.614;2023-11-21T14:13:37;18.50;80.70
17495;DHT22;8864;51.970;4.614;2023-11-21T14:16:05;18.40;80.70
17495;DHT22;8864;51.970;4.614;2023-11-21T14:18:37;18.40;80.70
17495;DHT22;8864;51.970;4.614;2023-11-21T14:21:16;18.40;80.80
17495;DHT22;8864;51.970;4.614;2023-11-21T14:23:42;18.30;80.80
17495;DHT22;8864;51.970;4.614;2023-11-21T14:26:11;18.30;80.90
17495;DHT22;8864;51.970;4.614;2023-11-21T14:28:40;18.30;80.90
17495;DHT22;8864;51.970;4.614;2023-11-21T14:31:07;18.30;80.90
17495;DHT22;8864;51.970;4.614;2023-11-21T14:33:40;18.30;80.90
17495;DHT22;8864;51.970;4.614;2023-11-21T14:36:08;18.30;80.90
17495;DHT22;8864;51.970;4.614;2023-11-21T14:38:35;18.20;81.60
17495;DHT22;8864;51.970;4.614;2023-11-21T14:41:03;18.20;81.50
17495;DHT22;8864;51.970;4.614;2023-11-21T14:43:33;18.20;81.50
17495;DHT22;8864;51.970;4.614;2023-11-21T14:46:01;18.20;81.40
17495;DHT22;8864;51.970;4.614;2023-11-21T14:48:32;18.20;81.30
17495;DHT22;8864;51.970;4.614;2023-11-21T14:51:09;18.20;81.20
17495;DHT22;8864;51.970;4.614;2023-11-21T14:53:57;18.20;81.30
17495;DHT22;8864;51.970;4.614;2023-11-21T14:56:32;18.10;81.20
17495;DHT22;8864;51.970;4.614;2023-11-21T14:59:03;18.10;81.20
17495;DHT22;8864;51.970;4.614;2023-11-21T15:01:34;18.10;81.10
17495;DHT22;8864;51.970;4.614;2023-11-21T15:04:10;18.10;81.20
17495;DHT22;8864;51.970;4.614;2023-11-21T15:06:47;18.10;81.10
17495;DHT22;8864;51.970;4.614;2023-11-21T15:09:15;18.10;81.10
17495;DHT22;8864;51.970;4.614;2023-11-21T15:12:02;18.10;81.00
17495;DHT22;8864;51.970;4.614;2023-11-21T15:14:43;18.10;81.10
17495;DHT22;8864;51.970;4.614;2023-11-21T15:17:11;18.10;81.00
17495;DHT22;8864;51.970;4.614;2023-11-21T15:19:46;18.10;81.00
17495;DHT22;8864;51.970;4.614;2023-11-21T15:22:14;18.00;81.50
17495;DHT22;8864;51.970;4.614;2023-11-21T15:24:41;18.00;81.60
17495;DHT22;8864;51.970;4.614;2023-11-21T15:27:12;18.00;81.60
17495;DHT22;8864;51.970;4.614;2023-11-21T15:29:39;18.00;81.50
17495;DHT22;8864;51.970;4.614;2023-11-21T15:32:07;18.00;81.50
17495;DHT22;8864;51.970;4.614;2023-11-21T15:34:35;18.00;81.40
17495;DHT22;8864;51.970;4.614;2023-11-21T15:37:03;18.00;81.40
17495;DHT22;8864;51.970;4.614;2023-11-21T15:39:32;18.00;81.40
17495;DHT22;8864;51.970;4.614;2023-11-21T15:42:00;18.00;81.40
17495;DHT22;8864;51.970;4.614;2023-11-21T15:44:29;18.00;81.30
17495;DHT22;8864;51.970;4.614;2023-11-21T15:46:58;18.00;81.30
17495;DHT22;8864;51.970;4.614;2023-11-21T15:49:26;18.00;81.30
17495;DHT22;8864;51.970;4.614;2023-11-21T15:51:55;18.00;81.30
17495;DHT22;8864;51.970;4.614;2023-11-21T15:54:26;17.90;81.20
17495;DHT22;8864;51.970;4.614;2023-11-21T15:56:55;18.00;81.30